Bewolking Meer informatie Parkstad Weather Satellite


Neerslag Meer informatie Parkstad Rain Snow Radar


Onweersbuien Meer informatie Parkstad Lighntning


24/7 Weercamera Meer informatie Parkstad Weathercam


Natuurbrandrisico
CBI






Het weer levert geen direct gevaar op in Parkstad.    Er zijn geen waarschuwingen afgegeven voor Parkstad (045)

METAR rapporten vliegvelden

   
EHBK - Beek Nederland
Gewijzigd: 17-08-2018 12:25
Grotendeels bewolkt  
Grotendeels bewolkt  
   Wind: NNW 11.1 km/h
Wind: NNW 11.1 km/h
Temperatuur: 17°C
Dauwpunt: 15°C
Vochtigheid: 88%
Barometer: 1019 hPa
Satelliet beelden: Grotendeels bewolkt
Zicht: meer dan 10 km
Bewolking: Licht bewolkt 274 m,
Gedeeltelijk bewolkt 305 m,
Grotendeels bewolkt 457 m
EHBK 171025Z AUTO 33006KT 290V020 9999 FEW009 SCT010 BKN015 17/15 Q1019 BECMG BKN035
EHBK - Maastricht Nederland
Gewijzigd: 17-08-2018 12:25
Grotendeels bewolkt  
Grotendeels bewolkt  
   Wind: NNW 11.1 km/h
Wind: NNW 11.1 km/h
Temperatuur: 17°C
Dauwpunt: 15°C
Vochtigheid: 88%
Barometer: 1019 hPa
Satelliet beelden: Grotendeels bewolkt
Zicht: meer dan 10 km
Bewolking: Licht bewolkt 274 m,
Gedeeltelijk bewolkt 305 m,
Grotendeels bewolkt 457 m
EHBK 171025Z AUTO 33006KT 290V020 9999 FEW009 SCT010 BKN015 17/15 Q1019 BECMG BKN035
EBLG - Liège België
Gewijzigd: 17-08-2018 12:20
Grotendeels bewolkt  
Grotendeels bewolkt  
   Wind: NNW 7.4 km/h
Wind: NNW 7.4 km/h
Temperatuur: 16°C
Dauwpunt: 14°C
Vochtigheid: 88%
Barometer: 1019 hPa
Satelliet beelden: Grotendeels bewolkt
Zicht: meer dan 10 km
Bewolking: Gedeeltelijk bewolkt 244 m,
Grotendeels bewolkt 335 m,
Grotendeels bewolkt 945 m
EBLG 171020Z 33004KT 300V010 9999 SCT008 BKN011 BKN031 16/14 Q1019 NOSIG
EDDK - Köln/Bonn Duitsland
Gewijzigd: 17-08-2018 12:50
Grotendeels bewolkt  
Grotendeels bewolkt  
   Wind: NNW 22.2 km/h
Wind: NNW 22.2 km/h
Temperatuur: 19°C
Dauwpunt: 15°C
Vochtigheid: 78%
Barometer: 1018 hPa
Satelliet beelden: Grotendeels bewolkt
Zicht: meer dan 10 km
Bewolking: Grotendeels bewolkt 457 m,
Grotendeels bewolkt 914 m
EDDK 171050Z 33012KT 300V010 9999 BKN015 BKN030 19/15 Q1018 TEMPO BKN012
EDDL - Düsseldorf Duitsland
Gewijzigd: 17-08-2018 12:50
Grotendeels bewolkt  
Grotendeels bewolkt  
   Wind: NNW 13 km/h
Wind: NNW 13 km/h
Temperatuur: 18°C
Dauwpunt: 16°C
Vochtigheid: 88%
Barometer: 1018 hPa
Satelliet beelden: Grotendeels bewolkt
Zicht: meer dan 10 km
Bewolking: Gedeeltelijk bewolkt 335 m,
Grotendeels bewolkt 549 m
EDDL 171050Z 33007KT 310V010 9999 SCT011 BKN018 18/16 Q1018 NOSIG
EHEH - Eindhoven Nederland
Gewijzigd: 17-08-2018 12:25
Gedeeltelijk bewolkt  
Gedeeltelijk bewolkt  
   Wind: NNW 11.1 km/h
Wind: NNW 11.1 km/h
Temperatuur: 21°C
Dauwpunt: 12°C
Vochtigheid: 57%
Barometer: 1019 hPa
Satelliet beelden: Gedeeltelijk bewolkt
Zicht: meer dan 10 km
Bewolking: Gedeeltelijk bewolkt 7925 m
EHEH 171025Z AUTO 33006KT 250V060 9999 SCT260 21/12 Q1019 BLU 34006KT 9999 SCT030
ELLX - Luxemburg Luxemburg
Gewijzigd: 17-08-2018 12:20
Licht bewolkt  
Licht bewolkt  
   Wind: NNO 16.7 km/h
Wind: NNO 16.7 km/h
Temperatuur: 22°C
Dauwpunt: 14°C
Vochtigheid: 61%
Barometer: 1018 hPa
Satelliet beelden: Licht bewolkt
Zicht: meer dan 10 km
Bewolking: Licht bewolkt 762 m
ELLX 171020Z 03009KT 9999 FEW025TCU 22/14 Q1018 NOSIG
EGLL - London England
Gewijzigd: 17-08-2018 12:50
Helder  
Helder  
   Wind: WZW 20.4 km/h
Wind: WZW 20.4 km/h
Temperatuur: 20°C
Dauwpunt: 9°C
Vochtigheid: 49%
Barometer: 1021 hPa
Satelliet beelden: Helder
Zicht: meer dan 10 km
Bewolking: Helder
EGLL 171050Z AUTO 25011KT 9999 NCD 20/09 Q1021 NOSIG
EBAW - Antwerpen België
Gewijzigd: 17-08-2018 12:50
Gedeeltelijk bewolkt  
Gedeeltelijk bewolkt  
   Wind: WNW 11.1 km/h
Wind: WNW 11.1 km/h
Temperatuur: 21°C
Dauwpunt: 10°C
Vochtigheid: 50%
Barometer: 1019 hPa
Satelliet beelden: Gedeeltelijk bewolkt
Zicht: meer dan 10 km
Bewolking: Gedeeltelijk bewolkt 1067 m
EBAW 171050Z 30006KT 270V350 9999 SCT035 21/10 Q1019 NOSIG
EBOS - Oostende België
Gewijzigd: 17-08-2018 12:50
Licht bewolkt  
Licht bewolkt  
   Wind: WNW 16.7 km/h
Wind: WNW 16.7 km/h
Temperatuur: 19°C
Dauwpunt: 11°C
Vochtigheid: 60%
Barometer: 1020 hPa
Satelliet beelden: Licht bewolkt
Zicht: meer dan 10 km
Bewolking: Licht bewolkt 975 m
EBOS 171050Z 30009KT 9999 FEW032 19/11 Q1020 NOSIG
LEAL - La Nucia Spanje
Gewijzigd: 17-08-2018 12:30
Licht bewolkt  
Licht bewolkt  
   Wind: Zuiden 9.3 km/h
Wind: Zuiden 9.3 km/h
Temperatuur: 28°C
Gevoelstemperatuur: 29°C
Dauwpunt: 19°C
Vochtigheid: 58%
Barometer: 1016 hPa
Satelliet beelden: Licht bewolkt
Zicht: meer dan 10 km
Bewolking: Licht bewolkt 671 m
LEAL 171030Z 17005KT 080V230 9999 FEW022 28/19 Q1016 NOSIG
TNCA - Oranjestad Aruba
Gewijzigd: 17-08-2018 12:00
Licht bewolkt  
Licht bewolkt  
   Wind: Oosten 27.8 km/h
Wind: Oosten 27.8 km/h
Temperatuur: 27°C
Gevoelstemperatuur: 29°C
Dauwpunt: 23°C
Vochtigheid: 79%
Barometer: 1014 hPa
Satelliet beelden: Licht bewolkt
Zicht: meer dan 10 km
Bewolking: Licht bewolkt 549 m
TNCA 171000Z 10015KT 9999 FEW018 27/23 Q1014 NOSIG
TNCC - Willemstad Curacao
Gewijzigd: 17-08-2018 12:00
Licht bewolkt  
Licht bewolkt  
   Wind: OZO 16.7 km/h
Wind: OZO 16.7 km/h
Temperatuur: 27°C
Gevoelstemperatuur: 29°C
Dauwpunt: 22°C
Vochtigheid: 74%
Barometer: 1015 hPa
Satelliet beelden: Licht bewolkt
Zicht: meer dan 10 km
Bewolking: Licht bewolkt 549 m
TNCC 171000Z 12009KT 9999 FEW018 27/22 Q1015 NOSIG
MTPP - Port au Prince Haitië
Gewijzigd: 17-08-2018 12:00
Licht bewolkt  
Licht bewolkt  
   Wind: ZZO 9.3 km/h
Wind: ZZO 9.3 km/h
Temperatuur: 27°C
Gevoelstemperatuur: 29°C
Dauwpunt: 23°C
Vochtigheid: 79%
Barometer: 1016 hPa
Satelliet beelden: Licht bewolkt
Zicht: 8 km
Bewolking: Licht bewolkt 610 m
MTPP 171000Z 15005KT 8000 FEW020 27/23 Q1016 A3001
ENVA - Trondheim Noorwegen
Gewijzigd: 17-08-2018 12:50
Gedeeltelijk bewolkt  
Gedeeltelijk bewolkt  
   Wind: WZW 20.4 km/h
Wind: WZW 20.4 km/h
Temperatuur: 18°C
Dauwpunt: 13°C
Vochtigheid: 73%
Barometer: 1003 hPa
Satelliet beelden: Gedeeltelijk bewolkt
Zicht: meer dan 10 km
Bewolking: Licht bewolkt 1067 m,
Gedeeltelijk bewolkt 2012 m
ENVA 171050Z 25011KT 9999 FEW035CB SCT066 18/13 Q1003 NOSIG RMK WIND 670FT 29006KT
ENBO - Bodø Noorwegen
Gewijzigd: 17-08-2018 12:50
Gedeeltelijk bewolkt  
Gedeeltelijk bewolkt  
   Wind: ZW 20.4 km/h
Wind: ZW 20.4 km/h
Temperatuur: 16°C
Dauwpunt: 12°C
Vochtigheid: 77%
Barometer: 1002 hPa
Satelliet beelden: Gedeeltelijk bewolkt
Zicht: meer dan 10 km
Bewolking: Licht bewolkt 244 m,
Gedeeltelijk bewolkt 1829 m
ENBO 171050Z 22011KT 9999 FEW008 SCT060 16/12 Q1002 NOSIG
ETNG - Geilenkirchen Duitsland
Gewijzigd: 17-08-2018 12:50
Grotendeels bewolkt  
Grotendeels bewolkt  
   Wind: NNW 11.1 km/h
Wind: NNW 11.1 km/h
Temperatuur: 18°C
Dauwpunt: 15°C
Vochtigheid: 83%
Barometer: 1019 hPa
Satelliet beelden: Grotendeels bewolkt
Zicht: meer dan 10 km
Bewolking: Grotendeels bewolkt 366 m,
Grotendeels bewolkt 610 m
ETNG 171050Z 34006KT 9999 BKN012 BKN020 18/15 Q1019 BECMG BKN015
 

Script ontwikkeld door  Saratoga-weather.org Aangepast voor de template door  Weerstation Leuven

U vindt ons ook hier:

Het Weer Aktueel

UK Metoffice

European Weather Network

WeatherCloud

Weather Underground

Benelux Weer Netwerk

AWEKAS

WeatherlinkIP

Citizen Weather Observer Program (CWOP)

HAMweather, WeatherForYou, PWS Weather

Apparatuur in gebruik:

Hardwareleverancier
Weerhuisje

Weerstation
Vantage Pro2+ +UV

Weercomputer's
alix3d2 & wl330n

Weerprogramma's
Smartbedded

Satelliet NOAA's
WRX137 & KX137

Satelliet Eumetsat
Ayecka SR1 & Triax

Bliksemdetectie
Boltek StormTracker

Webleverancier
F-Service

Weerhuisje

Vantage Pro2+ +UV

alix3d2 & wl330n

Smartbedded

WRX137 & KX137

Ayecka SR1 & Triax

Boltek StormTracker

F-Service